Quantico Naval Hospital, Virginia
Current Conditions -  °F | °C
As of 1:56 AM on Wednesday 22 Oct 2014 (Local Time) from KNYG Reporting Station
Overcast Overcast  
Wind Chill: 53°   Ceiling: 8000
Heat Index: 53°   Visibility: 10mi
Dew Point: 49°   Wind: 14mph
Humidity: 86%   Direction: 350°N
Pressure: 29.89"   Gusts: 23mph
Location:  38.58°N, 77.4441°W
Report Text: KNYG 220556Z AUTO 35012G20KT 10SM FEW042 BKN080 OVC120 12/09 A2989 RMK AO2 SLP121 60015 T01170094 10133 20117 58010 $
Loading
Personal Weather Stations






























Interactive Weather Map
Tropical Storm Tracking
New forecast layout! Learn more

10-Day Weather Forecast

Advertisements
Track Severe Weather on mobile